createdAt,value
2018-08-23T00:00:34.693Z,20.47
2018-08-23T00:01:34.881Z,20.41
2018-08-23T00:02:35.056Z,20.39
2018-08-23T00:03:35.254Z,20.28
2018-08-23T00:04:35.415Z,20.31
2018-08-23T00:05:35.590Z,20.25
2018-08-23T00:06:35.770Z,20.22
2018-08-23T00:07:35.952Z,20.21
2018-08-23T00:08:36.133Z,20.21
2018-08-23T00:09:36.324Z,20.13
2018-08-23T00:10:36.505Z,20.14
2018-08-23T00:11:36.675Z,20.06
2018-08-23T00:12:36.849Z,20.04
2018-08-23T00:13:37.023Z,20.04
2018-08-23T00:14:37.219Z,19.89
2018-08-23T00:15:37.376Z,19.91
2018-08-23T00:16:37.596Z,19.92
2018-08-23T00:17:37.730Z,19.94
2018-08-23T00:18:37.903Z,19.99
2018-08-23T00:19:38.080Z,20.03
2018-08-23T00:20:38.259Z,19.96
2018-08-23T00:21:38.432Z,19.94
2018-08-23T00:22:38.606Z,19.88
2018-08-23T00:23:38.777Z,19.94
2018-08-23T00:24:38.950Z,19.94
2018-08-23T00:25:39.127Z,19.95
2018-08-23T00:26:39.306Z,19.89
2018-08-23T00:27:39.474Z,19.95
2018-08-23T00:28:39.646Z,19.89
2018-08-23T00:29:39.822Z,19.89
2018-08-23T00:30:39.999Z,19.92
2018-08-23T00:31:40.175Z,19.99
2018-08-23T00:32:40.346Z,19.94
2018-08-23T00:33:40.525Z,19.86
2018-08-23T00:34:40.694Z,19.91
2018-08-23T00:35:40.913Z,19.86
2018-08-23T00:36:41.060Z,19.81
2018-08-23T00:37:41.234Z,19.89
2018-08-23T00:38:41.413Z,19.81
2018-08-23T00:39:41.583Z,19.89
2018-08-23T00:40:41.767Z,19.85
2018-08-23T00:41:41.932Z,19.85
2018-08-23T00:42:42.110Z,19.84
2018-08-23T00:43:42.294Z,19.84
2018-08-23T00:44:42.462Z,19.82
2018-08-23T00:45:42.645Z,19.71
2018-08-23T00:46:42.825Z,19.74
2018-08-23T00:47:43.006Z,19.63
2018-08-23T00:48:43.183Z,19.77
2018-08-23T00:49:43.363Z,19.73
2018-08-23T00:50:43.540Z,19.70
2018-08-23T00:51:43.712Z,19.70
2018-08-23T00:52:43.888Z,19.74
2018-08-23T00:53:44.068Z,19.77
2018-08-23T00:54:44.247Z,19.63
2018-08-23T00:55:44.434Z,19.67
2018-08-23T00:56:44.603Z,19.73
2018-08-23T00:57:44.780Z,19.81
2018-08-23T00:58:44.959Z,19.84
2018-08-23T00:59:45.135Z,19.66
2018-08-23T01:00:45.304Z,19.62
2018-08-23T01:01:45.479Z,19.67
2018-08-23T01:02:45.655Z,19.66
2018-08-23T01:03:45.835Z,19.59
2018-08-23T01:04:46.012Z,19.59
2018-08-23T01:05:46.190Z,19.52
2018-08-23T01:06:46.373Z,19.49
2018-08-23T01:07:46.554Z,19.49
2018-08-23T01:08:46.726Z,19.63
2018-08-23T01:09:46.907Z,19.56
2018-08-23T01:10:47.079Z,19.59
2018-08-23T01:11:47.251Z,19.59
2018-08-23T01:12:47.428Z,19.66
2018-08-23T01:13:47.601Z,19.73
2018-08-23T01:14:47.781Z,19.70
2018-08-23T01:15:47.960Z,19.58
2018-08-23T01:16:48.148Z,19.62
2018-08-23T01:17:48.322Z,19.52
2018-08-23T01:18:48.492Z,19.36
2018-08-23T01:19:48.662Z,19.41
2018-08-23T01:20:48.845Z,19.40
2018-08-23T01:21:49.021Z,19.36
2018-08-23T01:22:49.200Z,19.33
2018-08-23T01:23:49.373Z,19.36
2018-08-23T01:24:49.554Z,19.44
2018-08-23T01:25:49.725Z,19.31
2018-08-23T01:26:49.904Z,19.33
2018-08-23T01:27:50.092Z,19.31
2018-08-23T01:28:50.277Z,19.22
2018-08-23T01:29:50.450Z,19.30
2018-08-23T01:30:50.626Z,19.27
2018-08-23T01:31:50.806Z,19.40
2018-08-23T01:32:50.980Z,19.21
2018-08-23T01:33:51.165Z,19.19
2018-08-23T01:34:51.338Z,19.15
2018-08-23T01:35:51.517Z,19.19
2018-08-23T01:36:51.696Z,19.14
2018-08-23T01:37:51.866Z,19.14
2018-08-23T01:38:52.049Z,19.21
2018-08-23T01:39:52.230Z,19.19
2018-08-23T01:40:52.405Z,19.18
2018-08-23T01:41:52.586Z,19.19
2018-08-23T01:42:52.766Z,18.98
2018-08-23T01:43:52.959Z,19.07
2018-08-23T01:44:53.138Z,18.93
2018-08-23T01:45:53.321Z,19.09
2018-08-23T01:46:53.492Z,19.16
2018-08-23T01:47:53.665Z,19.15
2018-08-23T01:48:53.851Z,18.96
2018-08-23T01:49:54.025Z,18.98
2018-08-23T01:50:54.201Z,19.08
2018-08-23T01:51:54.374Z,19.00
2018-08-23T01:52:54.549Z,19.02
2018-08-23T01:53:54.735Z,19.00
2018-08-23T01:54:54.912Z,18.86
2018-08-23T01:55:55.103Z,18.93
2018-08-23T01:56:55.275Z,18.96
2018-08-23T01:57:55.447Z,18.92
2018-08-23T01:58:55.625Z,18.83
2018-08-23T01:59:55.836Z,18.95
2018-08-23T02:00:55.977Z,18.86
2018-08-23T02:01:56.156Z,18.84
2018-08-23T02:02:56.323Z,18.80
2018-08-23T02:03:56.497Z,18.80
2018-08-23T02:04:56.681Z,18.71
2018-08-23T02:05:56.869Z,18.74
2018-08-23T02:06:57.045Z,18.77
2018-08-23T02:07:57.225Z,18.70
2018-08-23T02:08:57.403Z,18.59
2018-08-23T02:09:57.575Z,18.71
2018-08-23T02:10:57.749Z,18.65
2018-08-23T02:11:57.942Z,18.65
2018-08-23T02:12:58.121Z,18.62
2018-08-23T02:13:58.298Z,18.58
2018-08-23T02:14:58.477Z,18.63
2018-08-23T02:15:58.659Z,18.62
2018-08-23T02:16:58.834Z,18.56
2018-08-23T02:17:59.009Z,18.63
2018-08-23T02:18:59.190Z,18.63
2018-08-23T02:19:59.363Z,18.74
2018-08-23T02:20:59.542Z,18.66
2018-08-23T02:21:59.718Z,18.66
2018-08-23T02:22:59.891Z,18.63
2018-08-23T02:24:00.072Z,18.63
2018-08-23T02:25:00.246Z,18.56
2018-08-23T02:26:00.424Z,18.55
2018-08-23T02:27:00.606Z,18.56
2018-08-23T02:28:00.785Z,18.55
2018-08-23T02:29:00.966Z,18.49
2018-08-23T02:30:01.149Z,18.53
2018-08-23T02:31:01.318Z,18.55
2018-08-23T02:32:01.492Z,18.58
2018-08-23T02:33:01.665Z,18.59
2018-08-23T02:34:01.842Z,18.58
2018-08-23T02:35:02.010Z,18.70
2018-08-23T02:36:02.201Z,18.55
2018-08-23T02:37:02.376Z,18.33
2018-08-23T02:38:02.695Z,18.45
2018-08-23T02:39:02.728Z,18.44
2018-08-23T02:40:02.896Z,18.49
2018-08-23T02:41:03.068Z,18.53
2018-08-23T02:42:03.242Z,18.58
2018-08-23T02:43:03.413Z,18.56
2018-08-23T02:44:03.585Z,18.62
2018-08-23T02:45:03.754Z,18.55
2018-08-23T02:46:03.925Z,18.65
2018-08-23T02:47:04.105Z,18.65
2018-08-23T02:48:04.285Z,18.62
2018-08-23T02:49:04.465Z,18.68
2018-08-23T02:50:04.647Z,18.66
2018-08-23T02:51:04.813Z,18.56
2018-08-23T02:52:05.000Z,18.63
2018-08-23T02:53:05.181Z,18.59
2018-08-23T02:54:05.371Z,18.58
2018-08-23T02:55:05.552Z,18.60
2018-08-23T02:56:05.730Z,18.52
2018-08-23T02:57:05.912Z,18.58
2018-08-23T02:58:06.105Z,18.55
2018-08-23T02:59:06.280Z,18.44
2018-08-23T03:00:06.462Z,18.47
2018-08-23T03:01:06.635Z,18.43
2018-08-23T03:02:06.811Z,18.37
2018-08-23T03:03:06.995Z,18.41
2018-08-23T03:04:07.165Z,18.33
2018-08-23T03:05:07.344Z,18.34
2018-08-23T03:06:07.518Z,18.29
2018-08-23T03:07:07.696Z,18.38
2018-08-23T03:08:07.875Z,18.29
2018-08-23T03:09:08.047Z,18.20
2018-08-23T03:10:08.232Z,18.23
2018-08-23T03:11:08.405Z,18.20
2018-08-23T03:12:08.590Z,18.18
2018-08-23T03:13:08.765Z,18.25
2018-08-23T03:14:09.080Z,18.22
2018-08-23T03:15:09.110Z,18.18
2018-08-23T03:16:09.283Z,18.20
2018-08-23T03:17:09.464Z,18.15
2018-08-23T03:18:09.651Z,18.26
2018-08-23T03:19:09.829Z,18.22
2018-08-23T03:20:10.002Z,18.16
2018-08-23T03:21:10.176Z,18.13
2018-08-23T03:22:10.381Z,18.03
2018-08-23T03:23:10.560Z,18.01
2018-08-23T03:24:10.751Z,17.95
2018-08-23T03:25:10.925Z,18.10
2018-08-23T03:26:11.099Z,17.92
2018-08-23T03:27:11.272Z,18.13
2018-08-23T03:28:11.455Z,18.07
2018-08-23T03:29:11.633Z,18.05
2018-08-23T03:30:11.801Z,18.00
2018-08-23T03:31:11.975Z,18.13
2018-08-23T03:32:12.158Z,18.07
2018-08-23T03:33:12.325Z,18.16
2018-08-23T03:34:12.498Z,18.13
2018-08-23T03:35:12.673Z,18.13
2018-08-23T03:36:12.845Z,18.05
2018-08-23T03:37:13.019Z,18.00
2018-08-23T03:38:13.195Z,18.01
2018-08-23T03:39:13.377Z,18.05
2018-08-23T03:40:13.553Z,18.04
2018-08-23T03:41:13.726Z,17.95
2018-08-23T03:42:13.898Z,18.01
2018-08-23T03:43:14.073Z,18.03
2018-08-23T03:44:14.247Z,17.98
2018-08-23T03:45:14.624Z,18.00
2018-08-23T03:46:14.583Z,17.97
2018-08-23T03:47:14.769Z,18.10
2018-08-23T03:48:14.946Z,18.10
2018-08-23T03:49:15.119Z,18.13
2018-08-23T03:50:15.300Z,18.07
2018-08-23T03:51:15.475Z,18.11
2018-08-23T03:52:15.658Z,18.08
2018-08-23T03:53:15.834Z,18.05
2018-08-23T03:54:16.023Z,18.04
2018-08-23T03:55:16.196Z,18.04
2018-08-23T03:56:16.373Z,18.01
2018-08-23T03:57:16.554Z,18.03
2018-08-23T03:58:16.729Z,17.94
2018-08-23T03:59:16.905Z,17.94
2018-08-23T04:00:17.076Z,18.03
2018-08-23T04:01:17.257Z,17.94
2018-08-23T04:02:17.439Z,18.01
2018-08-23T04:03:17.621Z,17.95
2018-08-23T04:04:17.812Z,17.92
2018-08-23T04:05:17.997Z,17.94
2018-08-23T04:06:18.167Z,18.01
2018-08-23T04:07:18.342Z,18.00
2018-08-23T04:08:18.517Z,17.92
2018-08-23T04:09:18.698Z,17.86
2018-08-23T04:10:18.875Z,17.83
2018-08-23T04:11:19.062Z,17.70
2018-08-23T04:12:19.231Z,17.79
2018-08-23T04:13:19.407Z,17.82
2018-08-23T04:14:19.588Z,17.79
2018-08-23T04:15:19.805Z,17.76
2018-08-23T04:16:19.999Z,17.82
2018-08-23T04:17:20.145Z,17.82
2018-08-23T04:18:20.316Z,17.85
2018-08-23T04:19:20.488Z,17.82
2018-08-23T04:20:20.664Z,17.70
2018-08-23T04:21:20.846Z,17.80
2018-08-23T04:22:21.018Z,17.79
2018-08-23T04:23:21.193Z,17.65
2018-08-23T04:24:21.367Z,17.63
2018-08-23T04:25:21.545Z,17.56
2018-08-23T04:26:21.726Z,17.60
2018-08-23T04:27:21.912Z,17.57
2018-08-23T04:28:22.079Z,17.60
2018-08-23T04:29:22.244Z,17.57
2018-08-23T04:30:22.437Z,17.60
2018-08-23T04:31:22.614Z,17.59
2018-08-23T04:32:22.795Z,17.68
2018-08-23T04:33:22.974Z,17.68
2018-08-23T04:34:23.163Z,17.71
2018-08-23T04:35:23.356Z,17.59
2018-08-23T04:36:23.527Z,17.72
2018-08-23T04:37:23.707Z,17.80
2018-08-23T04:38:23.876Z,17.72
2018-08-23T04:39:26.502Z,17.82
2018-08-23T04:40:24.665Z,17.72
2018-08-23T04:41:24.360Z,17.63
2018-08-23T04:42:24.540Z,17.70
2018-08-23T04:43:24.783Z,17.85
2018-08-23T04:44:24.898Z,17.72
2018-08-23T04:45:25.079Z,17.63
2018-08-23T04:46:25.267Z,17.52
2018-08-23T04:47:27.582Z,17.57
2018-08-23T04:48:25.573Z,17.52
2018-08-23T04:49:25.754Z,17.46
2018-08-23T04:50:25.929Z,17.44
2018-08-23T04:51:27.260Z,17.46
2018-08-23T04:52:27.583Z,17.46
2018-08-23T04:53:27.937Z,17.46
2018-08-23T04:54:28.583Z,17.48
2018-08-23T04:55:26.750Z,17.60
2018-08-23T04:56:30.492Z,17.71
2018-08-23T04:57:28.327Z,17.78
2018-08-23T04:58:28.853Z,17.79
2018-08-23T04:59:28.400Z,17.79
2018-08-23T05:00:28.109Z,17.83
2018-08-23T05:01:27.835Z,17.90
2018-08-23T05:02:27.914Z,17.90
2018-08-23T05:03:30.489Z,17.83
2018-08-23T05:04:29.516Z,17.85
2018-08-23T05:05:28.736Z,17.82
2018-08-23T05:06:30.236Z,17.85
2018-08-23T05:07:29.613Z,17.90
2018-08-23T05:08:28.885Z,17.89
2018-08-23T05:09:31.051Z,17.89
2018-08-23T05:10:30.269Z,17.92
2018-08-23T05:11:29.992Z,17.98
2018-08-23T05:12:30.473Z,17.98
2018-08-23T05:13:29.700Z,17.98
2018-08-23T05:14:29.887Z,18.00
2018-08-23T05:15:30.318Z,17.86
2018-08-23T05:16:30.238Z,17.95
2018-08-23T05:17:30.307Z,17.97
2018-08-23T05:18:30.515Z,18.05
2018-08-23T05:19:30.713Z,18.01
2018-08-23T05:20:33.398Z,18.08
2018-08-23T05:21:33.452Z,18.16
2018-08-23T05:22:31.785Z,18.08
2018-08-23T05:23:31.347Z,18.15
2018-08-23T05:24:31.546Z,18.10
2018-08-23T05:25:31.727Z,18.11
2018-08-23T05:26:31.971Z,18.13
2018-08-23T05:27:32.024Z,18.26
2018-08-23T05:28:32.237Z,18.29
2018-08-23T05:29:32.610Z,18.35
2018-08-23T05:30:32.555Z,18.35
2018-08-23T05:31:33.359Z,18.58
2018-08-23T05:32:33.061Z,18.47
2018-08-23T05:33:33.133Z,18.56
2018-08-23T05:34:33.358Z,18.68
2018-08-23T05:35:33.373Z,18.58
2018-08-23T05:36:33.555Z,18.62
2018-08-23T05:37:35.807Z,18.78
2018-08-23T05:38:33.846Z,18.75
2018-08-23T05:39:34.134Z,18.78
2018-08-23T05:40:34.236Z,18.90
2018-08-23T05:41:34.278Z,19.00
2018-08-23T05:42:34.452Z,19.07
2018-08-23T05:43:34.624Z,19.09
2018-08-23T05:44:34.815Z,19.11
2018-08-23T05:45:34.990Z,19.21
2018-08-23T05:46:35.174Z,19.29
2018-08-23T05:47:35.382Z,19.21
2018-08-23T05:48:35.540Z,19.36
2018-08-23T05:49:35.714Z,19.30
2018-08-23T05:50:35.882Z,19.33
2018-08-23T05:51:36.070Z,19.34
2018-08-23T05:52:36.243Z,19.40
2018-08-23T05:53:36.573Z,19.36
2018-08-23T05:54:36.822Z,19.41
2018-08-23T05:55:36.751Z,19.41
2018-08-23T05:56:36.932Z,19.55
2018-08-23T05:57:37.107Z,19.59
2018-08-23T05:58:37.278Z,19.55
2018-08-23T05:59:37.466Z,19.62
2018-08-23T06:00:37.645Z,19.66
2018-08-23T06:01:37.836Z,19.76
2018-08-23T06:02:38.036Z,19.82
2018-08-23T06:03:38.189Z,19.81
2018-08-23T06:04:38.360Z,20.02
2018-08-23T06:05:38.542Z,20.04
2018-08-23T06:06:38.721Z,20.14
2018-08-23T06:07:38.909Z,20.19
2018-08-23T06:08:39.086Z,20.48
2018-08-23T06:09:39.261Z,20.51
2018-08-23T06:10:39.904Z,20.60
2018-08-23T06:11:40.093Z,20.80
2018-08-23T06:12:39.849Z,20.88
2018-08-23T06:13:40.615Z,20.90
2018-08-23T06:14:40.634Z,21.02
2018-08-23T06:15:41.753Z,21.02
2018-08-23T06:16:40.432Z,21.12
2018-08-23T06:17:40.616Z,21.20
2018-08-23T06:18:41.108Z,21.35
2018-08-23T06:19:40.979Z,21.51
2018-08-23T06:20:41.040Z,21.61
2018-08-23T06:21:41.218Z,21.62
2018-08-23T06:22:41.394Z,21.82
2018-08-23T06:23:41.584Z,21.99
2018-08-23T06:24:41.765Z,22.08
2018-08-23T06:25:41.949Z,21.99
2018-08-23T06:26:42.128Z,22.22
2018-08-23T06:27:42.324Z,22.35
2018-08-23T06:28:42.579Z,22.32
2018-08-23T06:29:42.870Z,22.48
2018-08-23T06:30:42.999Z,22.44
2018-08-23T06:31:43.076Z,22.60
2018-08-23T06:32:43.268Z,22.60
2018-08-23T06:33:43.511Z,22.62
2018-08-23T06:34:43.642Z,22.76
2018-08-23T06:35:43.916Z,22.87
2018-08-23T06:36:44.002Z,22.93
2018-08-23T06:37:44.178Z,23.00
2018-08-23T06:38:44.422Z,23.02
2018-08-23T06:39:44.561Z,23.05
2018-08-23T06:40:44.794Z,23.00
2018-08-23T06:41:44.950Z,23.02
2018-08-23T06:42:45.122Z,23.09
2018-08-23T06:43:45.300Z,23.31
2018-08-23T06:44:45.483Z,23.34
2018-08-23T06:45:45.680Z,23.27
2018-08-23T06:46:45.853Z,23.31
2018-08-23T06:47:46.044Z,23.39
2018-08-23T06:48:46.270Z,23.54
2018-08-23T06:49:46.415Z,23.63
2018-08-23T06:50:47.655Z,23.71
2018-08-23T06:51:48.155Z,23.77
2018-08-23T06:52:48.260Z,23.95
2018-08-23T06:53:50.062Z,23.96
2018-08-23T06:54:49.317Z,24.08
2018-08-23T06:55:49.395Z,24.10
2018-08-23T06:56:47.580Z,24.10
2018-08-23T06:57:47.819Z,24.29
2018-08-23T06:58:47.888Z,24.38
2018-08-23T06:59:48.067Z,24.47
2018-08-23T07:00:48.279Z,24.70
2018-08-23T07:01:48.465Z,24.84
2018-08-23T07:02:48.649Z,25.07
2018-08-23T07:03:48.881Z,25.38
2018-08-23T07:04:49.030Z,25.69
2018-08-23T07:05:49.226Z,25.81
2018-08-23T07:06:49.479Z,26.34
2018-08-23T07:07:49.599Z,26.63
2018-08-23T07:08:50.230Z,26.85
2018-08-23T07:09:49.918Z,26.93
2018-08-23T07:10:50.125Z,27.15
2018-08-23T07:11:50.419Z,27.21
2018-08-23T07:12:50.487Z,27.48
2018-08-23T07:13:50.545Z,27.55
2018-08-23T07:14:50.893Z,27.65
2018-08-23T07:15:51.217Z,27.77
2018-08-23T07:16:51.155Z,28.00
2018-08-23T07:17:51.390Z,28.19
2018-08-23T07:18:51.468Z,28.37
2018-08-23T07:19:51.653Z,28.59
2018-08-23T07:20:51.894Z,28.76
2018-08-23T07:21:53.052Z,28.85
2018-08-23T07:22:52.127Z,28.57
2018-08-23T07:23:52.303Z,28.82
2018-08-23T07:24:52.607Z,28.94
2018-08-23T07:25:52.607Z,29.16
2018-08-23T07:26:52.823Z,29.44
2018-08-23T07:27:52.977Z,29.57
2018-08-23T07:28:53.171Z,29.82
2018-08-23T07:29:53.361Z,29.81
2018-08-23T07:30:53.555Z,29.98
2018-08-23T07:31:53.762Z,30.10
2018-08-23T07:32:54.229Z,30.35
2018-08-23T07:33:54.080Z,30.50
2018-08-23T07:34:55.008Z,30.53
2018-08-23T07:35:55.268Z,30.84
2018-08-23T07:36:54.513Z,30.92
2018-08-23T07:37:54.704Z,30.97
2018-08-23T07:38:54.892Z,31.22
2018-08-23T07:39:55.088Z,31.42
2018-08-23T07:40:55.285Z,31.40
2018-08-23T07:41:55.472Z,31.49
2018-08-23T07:42:55.692Z,31.42
2018-08-23T07:43:55.872Z,31.81
2018-08-23T07:44:56.028Z,31.73
2018-08-23T07:45:56.215Z,31.84
2018-08-23T07:46:56.396Z,31.77
2018-08-23T07:47:56.584Z,32.00
2018-08-23T07:48:56.882Z,32.03
2018-08-23T07:49:56.923Z,32.21
2018-08-23T07:50:57.101Z,32.18
2018-08-23T07:51:57.284Z,32.34
2018-08-23T07:52:57.553Z,32.53
2018-08-23T07:53:57.661Z,32.68
2018-08-23T07:54:57.844Z,32.80
2018-08-23T07:55:58.020Z,33.00
2018-08-23T07:56:58.206Z,32.56
2018-08-23T07:57:58.387Z,32.65
2018-08-23T07:58:58.566Z,32.70
2018-08-23T07:59:58.744Z,32.78
2018-08-23T08:00:58.962Z,33.12
2018-08-23T08:01:59.107Z,33.31
2018-08-23T08:02:59.286Z,33.43
2018-08-23T08:03:59.497Z,33.37
2018-08-23T08:04:59.666Z,33.62
2018-08-23T08:05:59.849Z,33.42
2018-08-23T08:07:00.035Z,33.79
2018-08-23T08:08:00.224Z,33.98
2018-08-23T08:09:00.411Z,34.21
2018-08-23T08:10:00.591Z,34.38
2018-08-23T08:11:00.775Z,34.18
2018-08-23T08:12:00.970Z,34.21
2018-08-23T08:13:01.158Z,34.17
2018-08-23T08:14:01.341Z,34.62
2018-08-23T08:15:01.683Z,34.45
2018-08-23T08:16:01.725Z,34.67
2018-08-23T08:17:01.906Z,34.70
2018-08-23T08:18:02.095Z,34.93
2018-08-23T08:19:02.278Z,34.89
2018-08-23T08:20:02.470Z,34.99
2018-08-23T08:21:02.778Z,34.97
2018-08-23T08:22:02.850Z,34.71
2018-08-23T08:23:03.039Z,35.15
2018-08-23T08:24:03.234Z,35.07
2018-08-23T08:25:03.427Z,35.10
2018-08-23T08:26:03.606Z,34.97
2018-08-23T08:27:03.820Z,35.41
2018-08-23T08:28:03.984Z,35.58
2018-08-23T08:29:04.580Z,35.55
2018-08-23T08:30:04.384Z,35.89
2018-08-23T08:31:04.575Z,36.01
2018-08-23T08:32:04.762Z,36.18
2018-08-23T08:33:05.014Z,36.30
2018-08-23T08:34:06.004Z,36.52
2018-08-23T08:35:05.301Z,36.37
2018-08-23T08:36:05.491Z,36.18
2018-08-23T08:37:05.684Z,36.28
2018-08-23T08:38:05.914Z,36.24
2018-08-23T08:39:06.112Z,36.47
2018-08-23T08:40:06.402Z,36.68
2018-08-23T08:41:06.502Z,36.93
2018-08-23T08:42:06.743Z,36.93
2018-08-23T08:43:07.757Z,36.57
2018-08-23T08:44:07.067Z,36.62
2018-08-23T08:45:07.364Z,36.99
2018-08-23T08:46:08.051Z,37.20
2018-08-23T08:47:07.718Z,37.44
2018-08-23T08:48:07.794Z,37.48
2018-08-23T08:49:08.042Z,37.14
2018-08-23T08:50:08.309Z,37.20
2018-08-23T08:51:08.306Z,37.25
2018-08-23T08:52:08.544Z,37.28
2018-08-23T08:53:09.253Z,37.29
2018-08-23T08:54:08.940Z,37.32
2018-08-23T08:55:09.298Z,37.33
2018-08-23T08:56:09.485Z,37.13
2018-08-23T08:57:09.631Z,37.07
2018-08-23T08:58:09.774Z,36.89
2018-08-23T08:59:09.630Z,36.76
2018-08-23T09:00:10.081Z,36.72
2018-08-23T09:01:10.284Z,36.68
2018-08-23T09:02:10.483Z,36.77
2018-08-23T09:03:13.368Z,36.95
2018-08-23T09:04:11.945Z,36.61
2018-08-23T09:05:11.344Z,37.02
2018-08-23T09:06:11.202Z,37.15
2018-08-23T09:07:11.613Z,37.15
2018-08-23T09:08:11.707Z,37.60
2018-08-23T09:09:12.137Z,37.60
2018-08-23T09:10:12.231Z,37.86
2018-08-23T09:11:12.290Z,37.96
2018-08-23T09:12:12.443Z,37.93
2018-08-23T09:13:12.388Z,38.38
2018-08-23T09:14:12.571Z,38.58
2018-08-23T09:15:12.778Z,38.82
2018-08-23T09:16:13.037Z,38.80
2018-08-23T09:17:13.067Z,38.82
2018-08-23T09:18:13.253Z,39.06
2018-08-23T09:19:13.449Z,39.19
2018-08-23T09:20:13.638Z,39.48
2018-08-23T09:21:13.831Z,39.31
2018-08-23T09:22:14.087Z,39.51
2018-08-23T09:23:14.262Z,39.55
2018-08-23T09:24:14.462Z,39.70
2018-08-23T09:25:14.698Z,39.97
2018-08-23T09:26:14.847Z,39.60
2018-08-23T09:27:15.141Z,39.93
2018-08-23T09:28:15.265Z,40.26
2018-08-23T09:29:15.475Z,40.63
2018-08-23T09:30:15.670Z,40.68
2018-08-23T09:31:15.925Z,40.69
2018-08-23T09:32:16.093Z,40.90
2018-08-23T09:33:16.286Z,40.88
2018-08-23T09:34:16.488Z,41.03
2018-08-23T09:35:16.668Z,40.95
2018-08-23T09:36:16.852Z,41.07
2018-08-23T09:37:17.044Z,41.29
2018-08-23T09:38:17.262Z,40.88
2018-08-23T09:39:17.424Z,40.97
2018-08-23T09:40:17.760Z,41.09
2018-08-23T09:41:17.883Z,40.66
2018-08-23T09:42:18.076Z,40.81
2018-08-23T09:43:20.199Z,40.82
2018-08-23T09:44:19.824Z,40.59
2018-08-23T09:45:19.049Z,40.95
2018-08-23T09:46:19.048Z,41.03
2018-08-23T09:47:19.970Z,40.88
2018-08-23T09:48:19.085Z,40.85
2018-08-23T09:49:20.636Z,40.99
2018-08-23T09:50:20.790Z,41.22
2018-08-23T09:51:22.198Z,41.09
2018-08-23T09:52:21.267Z,41.14
2018-08-23T09:53:21.190Z,41.28
2018-08-23T09:54:21.020Z,41.28
2018-08-23T09:55:21.288Z,41.38
2018-08-23T09:56:20.692Z,40.91
2018-08-23T09:57:20.636Z,41.31
2018-08-23T09:58:23.232Z,41.37
2018-08-23T09:59:21.814Z,41.04
2018-08-23T10:00:24.741Z,40.99
2018-08-23T10:01:21.234Z,40.95
2018-08-23T10:02:21.433Z,40.75
2018-08-23T10:03:21.667Z,40.84
2018-08-23T10:04:22.536Z,40.78
2018-08-23T10:05:22.169Z,39.96
2018-08-23T10:06:22.261Z,40.78
2018-08-23T10:07:22.747Z,41.19
2018-08-23T10:08:22.671Z,41.36
2018-08-23T10:09:23.031Z,41.57
2018-08-23T10:10:23.001Z,40.97
2018-08-23T10:11:23.279Z,40.85
2018-08-23T10:12:23.391Z,40.47
2018-08-23T10:13:23.578Z,41.09
2018-08-23T10:14:23.772Z,41.53
2018-08-23T10:15:24.183Z,41.88
2018-08-23T10:16:24.222Z,42.28
2018-08-23T10:17:24.293Z,42.41
2018-08-23T10:18:24.489Z,42.62
2018-08-23T10:19:24.680Z,42.57
2018-08-23T10:20:24.938Z,42.97
2018-08-23T10:21:25.001Z,43.35
2018-08-23T10:22:25.191Z,43.48
2018-08-23T10:23:25.379Z,43.08
2018-08-23T10:24:25.580Z,43.31
2018-08-23T10:25:25.772Z,43.74
2018-08-23T10:26:31.533Z,43.53
2018-08-23T10:27:29.506Z,43.08
2018-08-23T10:28:27.606Z,42.85
2018-08-23T10:29:28.422Z,42.94
2018-08-23T10:30:29.503Z,43.00
2018-08-23T10:31:26.761Z,43.36
2018-08-23T10:32:26.914Z,43.43
2018-08-23T10:33:27.098Z,43.41
2018-08-23T10:34:27.295Z,43.18
2018-08-23T10:35:27.480Z,43.06
2018-08-23T10:36:27.669Z,42.92
2018-08-23T10:37:27.859Z,43.27
2018-08-23T10:38:28.049Z,43.45
2018-08-23T10:39:28.236Z,43.64
2018-08-23T10:40:28.445Z,43.61
2018-08-23T10:41:28.646Z,44.03
2018-08-23T10:42:28.861Z,44.02
2018-08-23T10:43:29.070Z,44.32
2018-08-23T10:44:29.294Z,44.15
2018-08-23T10:45:29.452Z,43.89
2018-08-23T10:46:29.645Z,44.13
2018-08-23T10:47:29.846Z,44.30
2018-08-23T10:48:30.031Z,44.40
2018-08-23T10:49:30.228Z,44.55
2018-08-23T10:50:30.461Z,44.71
2018-08-23T10:51:30.629Z,44.96
2018-08-23T10:52:30.827Z,45.29
2018-08-23T10:53:31.018Z,44.98
2018-08-23T10:54:31.888Z,45.13
2018-08-23T10:55:32.914Z,45.39
2018-08-23T10:56:31.588Z,45.35
2018-08-23T10:57:31.771Z,44.67
2018-08-23T10:58:31.972Z,43.94
2018-08-23T10:59:32.165Z,42.84
2018-08-23T11:00:32.348Z,42.66
2018-08-23T11:01:32.582Z,42.17
2018-08-23T11:02:32.752Z,42.62
2018-08-23T11:03:32.954Z,42.21
2018-08-23T11:04:33.148Z,42.79
2018-08-23T11:05:33.345Z,43.36
2018-08-23T11:06:33.602Z,43.33
2018-08-23T11:07:33.663Z,43.48
2018-08-23T11:08:33.857Z,43.49
2018-08-23T11:09:34.065Z,43.69
2018-08-23T11:10:34.294Z,43.80
2018-08-23T11:11:34.386Z,44.11
2018-08-23T11:12:34.619Z,44.18
2018-08-23T11:13:34.809Z,43.46
2018-08-23T11:14:35.004Z,43.62
2018-08-23T11:15:35.200Z,43.91
2018-08-23T11:16:35.480Z,43.61
2018-08-23T11:17:36.253Z,43.74
2018-08-23T11:18:36.349Z,43.48
2018-08-23T11:19:36.601Z,43.55
2018-08-23T11:20:40.827Z,43.79
2018-08-23T11:21:38.394Z,43.92
2018-08-23T11:22:37.349Z,44.11
2018-08-23T11:23:38.098Z,44.01
2018-08-23T11:24:37.108Z,44.10
2018-08-23T11:25:37.424Z,44.20
2018-08-23T11:26:37.063Z,44.22
2018-08-23T11:27:37.267Z,43.89
2018-08-23T11:28:37.666Z,43.84
2018-08-23T11:29:37.667Z,43.89
2018-08-23T11:30:37.790Z,43.33
2018-08-23T11:31:41.453Z,43.24
2018-08-23T11:32:41.750Z,43.10
2018-08-23T11:33:38.351Z,43.13
2018-08-23T11:34:38.534Z,43.00
2018-08-23T11:35:38.716Z,43.27
2018-08-23T11:36:38.905Z,43.06
2018-08-23T11:37:39.104Z,42.92
2018-08-23T11:38:39.374Z,42.95
2018-08-23T11:39:39.437Z,42.94
2018-08-23T11:40:39.661Z,42.86
2018-08-23T11:41:39.845Z,43.18
2018-08-23T11:42:40.124Z,43.53
2018-08-23T11:43:40.366Z,43.58
2018-08-23T11:44:40.448Z,43.42
2018-08-23T11:45:40.530Z,43.30
2018-08-23T11:46:40.735Z,43.11
2018-08-23T11:47:40.938Z,43.01
2018-08-23T11:48:41.371Z,42.58
2018-08-23T11:49:42.564Z,42.63
2018-08-23T11:50:41.789Z,41.82
2018-08-23T11:51:42.424Z,41.36
2018-08-23T11:52:43.318Z,41.55
2018-08-23T11:53:43.995Z,41.10
2018-08-23T11:54:43.605Z,41.40
2018-08-23T11:55:43.612Z,41.37
2018-08-23T11:56:43.493Z,41.43
2018-08-23T11:57:43.874Z,41.37
2018-08-23T11:58:44.067Z,41.02
2018-08-23T11:59:44.268Z,40.69
2018-08-23T12:00:44.432Z,40.53
2018-08-23T12:01:44.501Z,40.21
2018-08-23T12:02:45.536Z,39.62
2018-08-23T12:03:47.016Z,39.34
2018-08-23T12:04:45.001Z,39.30
2018-08-23T12:05:45.137Z,39.14
2018-08-23T12:06:44.867Z,38.77
2018-08-23T12:07:44.839Z,38.74
2018-08-23T12:08:45.021Z,38.40
2018-08-23T12:09:45.244Z,37.96
2018-08-23T12:10:45.421Z,37.87
2018-08-23T12:11:45.609Z,37.84
2018-08-23T12:12:45.797Z,37.67
2018-08-23T12:13:45.988Z,37.55
2018-08-23T12:14:46.171Z,37.48
2018-08-23T12:15:46.369Z,37.39
2018-08-23T12:16:49.272Z,37.10
2018-08-23T12:17:47.194Z,36.72
2018-08-23T12:18:47.840Z,36.51
2018-08-23T12:19:47.238Z,36.43
2018-08-23T12:20:47.633Z,36.20
2018-08-23T12:21:48.488Z,36.08
2018-08-23T12:22:49.777Z,36.00
2018-08-23T12:23:48.236Z,35.80
2018-08-23T12:24:47.978Z,35.53
2018-08-23T12:25:48.613Z,35.41
2018-08-23T12:26:49.542Z,35.34
2018-08-23T12:27:48.925Z,35.17
2018-08-23T12:28:48.987Z,35.00
2018-08-23T12:29:49.283Z,34.90
2018-08-23T12:30:49.377Z,34.96
2018-08-23T12:31:49.491Z,35.12
2018-08-23T12:32:50.194Z,35.30
2018-08-23T12:33:49.488Z,35.45
2018-08-23T12:34:49.744Z,35.52
2018-08-23T12:35:49.888Z,35.51
2018-08-23T12:36:50.174Z,35.49
2018-08-23T12:37:50.573Z,35.66
2018-08-23T12:38:50.410Z,35.82
2018-08-23T12:39:50.605Z,35.85
2018-08-23T12:40:50.838Z,35.95
2018-08-23T12:41:51.011Z,36.09
2018-08-23T12:42:51.241Z,36.09
2018-08-23T12:43:51.347Z,36.12
2018-08-23T12:44:51.495Z,36.23
2018-08-23T12:45:51.707Z,36.23
2018-08-23T12:46:51.962Z,36.08
2018-08-23T12:47:52.201Z,36.09
2018-08-23T12:48:52.255Z,36.00
2018-08-23T12:49:53.371Z,35.89
2018-08-23T12:50:52.630Z,35.86
2018-08-23T12:51:52.814Z,35.79
2018-08-23T12:52:52.993Z,35.71
2018-08-23T12:53:53.179Z,35.58
2018-08-23T12:54:53.368Z,35.41